createdAt,value
2023-02-23T00:00:55.247Z,45.30
2023-02-23T00:01:55.269Z,52.30
2023-02-23T00:02:55.324Z,50.70
2023-02-23T00:03:55.209Z,47.60
2023-02-23T00:04:55.208Z,43.40
2023-02-23T00:05:55.192Z,43.20
2023-02-23T00:06:55.198Z,40.50
2023-02-23T00:07:55.192Z,39.90
2023-02-23T00:08:55.166Z,37.00
2023-02-23T00:09:55.160Z,39.70
2023-02-23T00:10:55.151Z,39.00
2023-02-23T00:11:55.143Z,36.40
2023-02-23T00:12:55.159Z,28.10
2023-02-23T00:13:55.133Z,26.70
2023-02-23T00:14:55.128Z,24.70
2023-02-23T00:15:55.117Z,26.00
2023-02-23T00:16:55.112Z,23.60
2023-02-23T00:17:55.124Z,23.30
2023-02-23T00:18:55.111Z,26.70
2023-02-23T00:19:55.078Z,25.40
2023-02-23T00:20:55.072Z,31.30
2023-02-23T00:21:55.069Z,35.00
2023-02-23T00:22:55.082Z,37.70
2023-02-23T00:23:55.055Z,37.30
2023-02-23T00:24:55.042Z,43.90
2023-02-23T00:25:55.035Z,38.30
2023-02-23T00:26:55.033Z,35.30
2023-02-23T00:27:55.055Z,31.50
2023-02-23T00:28:55.015Z,37.40
2023-02-23T00:29:55.007Z,35.70
2023-02-23T00:30:55.011Z,28.20
2023-02-23T00:31:55.098Z,33.10
2023-02-23T00:32:55.009Z,24.40
2023-02-23T00:33:54.985Z,21.90
2023-02-23T00:34:54.973Z,22.10
2023-02-23T00:35:54.963Z,22.90
2023-02-23T00:36:54.969Z,19.90
2023-02-23T00:37:54.974Z,20.20
2023-02-23T00:38:54.939Z,23.60
2023-02-23T00:39:54.937Z,24.00
2023-02-23T00:40:54.933Z,27.50
2023-02-23T00:41:54.940Z,26.80
2023-02-23T00:42:54.938Z,23.90
2023-02-23T00:43:54.923Z,28.50
2023-02-23T00:44:54.911Z,25.10
2023-02-23T00:45:54.977Z,28.70
2023-02-23T00:46:54.881Z,28.40
2023-02-23T00:47:54.909Z,31.50
2023-02-23T00:48:54.863Z,30.90
2023-02-23T00:49:55.860Z,28.00
2023-02-23T00:50:54.849Z,28.20
2023-02-23T00:51:54.846Z,29.70
2023-02-23T00:52:54.873Z,26.30
2023-02-23T00:53:54.832Z,28.00
2023-02-23T00:54:54.825Z,31.80
2023-02-23T00:55:54.818Z,29.40
2023-02-23T00:56:54.812Z,28.20
2023-02-23T00:57:54.805Z,30.20
2023-02-23T00:58:54.826Z,27.20
2023-02-23T00:59:54.785Z,26.90
2023-02-23T01:00:54.941Z,25.00
2023-02-23T01:01:54.775Z,26.50
2023-02-23T01:02:54.766Z,28.50
2023-02-23T01:03:54.794Z,28.40
2023-02-23T01:04:54.749Z,27.30
2023-02-23T01:05:54.744Z,24.40
2023-02-23T01:06:54.740Z,25.30
2023-02-23T01:07:54.727Z,24.30
2023-02-23T01:08:54.758Z,24.60
2023-02-23T01:09:54.717Z,24.20
2023-02-23T01:10:54.707Z,26.00
2023-02-23T01:11:54.695Z,25.10
2023-02-23T01:12:54.683Z,24.40
2023-02-23T01:13:54.704Z,24.90
2023-02-23T01:14:54.666Z,25.20
2023-02-23T01:15:54.700Z,24.60
2023-02-23T01:16:54.649Z,24.20
2023-02-23T01:17:54.650Z,24.10
2023-02-23T01:18:54.696Z,22.60
2023-02-23T01:19:54.641Z,25.60
2023-02-23T01:20:54.617Z,22.80
2023-02-23T01:21:54.677Z,24.00
2023-02-23T01:22:54.622Z,25.60
2023-02-23T01:23:54.621Z,27.30
2023-02-23T01:24:54.592Z,24.10
2023-02-23T01:25:54.623Z,26.00
2023-02-23T01:26:54.570Z,30.20
2023-02-23T01:27:54.564Z,34.80
2023-02-23T01:28:54.582Z,38.30
2023-02-23T01:29:54.556Z,38.20
2023-02-23T01:30:54.652Z,36.10
2023-02-23T01:31:54.622Z,39.60
2023-02-23T01:32:54.533Z,38.50
2023-02-23T01:33:54.563Z,40.10
2023-02-23T01:34:54.512Z,38.00
2023-02-23T01:35:54.502Z,37.20
2023-02-23T01:36:54.502Z,33.70
2023-02-23T01:37:54.495Z,38.90
2023-02-23T01:38:54.504Z,33.90
2023-02-23T01:39:54.480Z,33.40
2023-02-23T01:40:54.466Z,32.70
2023-02-23T01:41:54.469Z,32.90
2023-02-23T01:42:54.456Z,29.00
2023-02-23T01:43:54.461Z,30.00
2023-02-23T01:44:55.441Z,28.70
2023-02-23T01:45:54.444Z,28.80
2023-02-23T01:46:54.431Z,28.20
2023-02-23T01:47:54.416Z,30.50
2023-02-23T01:48:54.437Z,27.00
2023-02-23T01:49:54.404Z,27.90
2023-02-23T01:50:54.400Z,28.60
2023-02-23T01:51:54.391Z,31.00
2023-02-23T01:52:54.375Z,28.30
2023-02-23T01:53:54.398Z,30.50
2023-02-23T01:54:54.363Z,30.50
2023-02-23T01:55:54.354Z,30.10
2023-02-23T01:56:54.347Z,29.50
2023-02-23T01:57:54.343Z,31.00
2023-02-23T01:58:54.362Z,32.80
2023-02-23T01:59:54.327Z,31.00
2023-02-23T02:00:54.325Z,30.50
2023-02-23T02:01:54.349Z,28.70
2023-02-23T02:02:54.296Z,31.50
2023-02-23T02:03:54.318Z,30.10
2023-02-23T02:04:54.292Z,25.20
2023-02-23T02:05:54.275Z,28.60
2023-02-23T02:06:54.263Z,25.60
2023-02-23T02:07:54.264Z,27.80
2023-02-23T02:08:54.286Z,27.20
2023-02-23T02:09:54.244Z,26.40
2023-02-23T02:10:54.255Z,29.00
2023-02-23T02:11:54.310Z,28.20
2023-02-23T02:12:54.222Z,26.50
2023-02-23T02:13:54.251Z,28.40
2023-02-23T02:14:54.212Z,29.70
2023-02-23T02:15:54.237Z,26.30
2023-02-23T02:16:55.196Z,28.40
2023-02-23T02:17:54.189Z,30.30
2023-02-23T02:18:54.203Z,30.70
2023-02-23T02:19:54.176Z,29.20
2023-02-23T02:20:54.170Z,30.60
2023-02-23T02:21:54.159Z,31.80
2023-02-23T02:22:54.154Z,32.60
2023-02-23T02:23:54.165Z,34.90
2023-02-23T02:24:54.198Z,32.40
2023-02-23T02:25:54.129Z,33.50
2023-02-23T02:26:54.133Z,30.90
2023-02-23T02:27:54.107Z,31.50
2023-02-23T02:28:54.125Z,31.10
2023-02-23T02:29:54.089Z,29.70
2023-02-23T02:30:55.122Z,29.80
2023-02-23T02:31:54.146Z,30.90
2023-02-23T02:32:54.075Z,29.30
2023-02-23T02:33:54.092Z,29.50
2023-02-23T02:34:54.060Z,31.00
2023-02-23T02:35:54.046Z,30.90
2023-02-23T02:36:54.033Z,27.70
2023-02-23T02:37:54.028Z,31.70
2023-02-23T02:38:54.075Z,28.60
2023-02-23T02:39:54.004Z,25.00
2023-02-23T02:40:55.004Z,26.80
2023-02-23T02:41:53.999Z,28.30
2023-02-23T02:42:54.010Z,32.90
2023-02-23T02:43:54.007Z,25.90
2023-02-23T02:44:53.969Z,29.60
2023-02-23T02:45:53.995Z,27.30
2023-02-23T02:46:53.964Z,28.90
2023-02-23T02:47:53.951Z,28.50
2023-02-23T02:48:53.943Z,30.70
2023-02-23T02:49:53.959Z,32.10
2023-02-23T02:50:53.927Z,29.80
2023-02-23T02:51:53.923Z,29.60
2023-02-23T02:52:53.912Z,32.70
2023-02-23T02:53:53.912Z,30.20
2023-02-23T02:54:53.924Z,32.40
2023-02-23T02:55:53.892Z,33.40
2023-02-23T02:56:53.883Z,31.60
2023-02-23T02:57:53.876Z,32.60
2023-02-23T02:58:53.877Z,29.20
2023-02-23T02:59:53.881Z,29.00
2023-02-23T03:00:53.848Z,28.90
2023-02-23T03:01:53.877Z,27.40
2023-02-23T03:02:53.883Z,30.00
2023-02-23T03:03:53.826Z,28.80
2023-02-23T03:04:53.869Z,33.00
2023-02-23T03:05:53.808Z,30.20
2023-02-23T03:06:53.812Z,33.50
2023-02-23T03:07:53.793Z,31.50
2023-02-23T03:08:53.783Z,31.20
2023-02-23T03:09:53.809Z,31.60
2023-02-23T03:10:53.768Z,33.20
2023-02-23T03:11:54.158Z,28.10
2023-02-23T03:12:54.759Z,27.30
2023-02-23T03:13:53.749Z,27.30
2023-02-23T03:14:53.768Z,27.00
2023-02-23T03:15:53.762Z,28.10
2023-02-23T03:16:53.726Z,26.10
2023-02-23T03:17:53.722Z,28.10
2023-02-23T03:18:53.712Z,28.20
2023-02-23T03:19:53.730Z,28.90
2023-02-23T03:20:53.699Z,28.10
2023-02-23T03:21:53.693Z,30.00
2023-02-23T03:22:53.704Z,33.40
2023-02-23T03:23:53.751Z,30.50
2023-02-23T03:24:53.682Z,26.10
2023-02-23T03:25:53.656Z,26.60
2023-02-23T03:26:53.644Z,28.00
2023-02-23T03:27:53.639Z,25.60
2023-02-23T03:28:53.631Z,29.50
2023-02-23T03:29:53.680Z,28.00
2023-02-23T03:30:53.639Z,28.10
2023-02-23T03:31:53.719Z,27.70
2023-02-23T03:32:53.597Z,30.30
2023-02-23T03:33:53.599Z,28.10
2023-02-23T03:34:53.617Z,29.20
2023-02-23T03:35:53.581Z,27.60
2023-02-23T03:36:53.577Z,29.20
2023-02-23T03:37:53.570Z,28.30
2023-02-23T03:38:53.562Z,28.80
2023-02-23T03:39:53.673Z,24.50
2023-02-23T03:40:53.545Z,32.20
2023-02-23T03:41:53.533Z,28.60
2023-02-23T03:42:53.535Z,29.00
2023-02-23T03:43:53.518Z,26.60
2023-02-23T03:44:53.517Z,32.10
2023-02-23T03:45:53.574Z,27.50
2023-02-23T03:46:53.500Z,31.50
2023-02-23T03:47:53.500Z,31.50
2023-02-23T03:48:53.486Z,28.50
2023-02-23T03:49:53.477Z,30.60
2023-02-23T03:50:53.504Z,28.00
2023-02-23T03:51:53.476Z,29.60
2023-02-23T03:52:53.465Z,29.20
2023-02-23T03:53:53.445Z,29.40
2023-02-23T03:54:53.439Z,31.70
2023-02-23T03:55:53.454Z,31.40
2023-02-23T03:56:53.417Z,29.60
2023-02-23T03:57:53.416Z,28.80
2023-02-23T03:58:53.411Z,30.60
2023-02-23T03:59:53.424Z,29.10
2023-02-23T04:00:53.425Z,28.90
2023-02-23T04:01:53.441Z,29.70
2023-02-23T04:02:53.381Z,31.70
2023-02-23T04:03:53.424Z,26.80
2023-02-23T04:04:53.357Z,30.40
2023-02-23T04:05:53.380Z,27.70
2023-02-23T04:06:53.356Z,27.80
2023-02-23T04:07:53.336Z,27.00
2023-02-23T04:08:53.330Z,27.20
2023-02-23T04:09:53.321Z,29.90
2023-02-23T04:10:53.343Z,32.40
2023-02-23T04:11:53.312Z,30.70
2023-02-23T04:12:53.298Z,31.80
2023-02-23T04:13:53.288Z,32.50
2023-02-23T04:14:53.282Z,31.60
2023-02-23T04:15:53.486Z,32.80
2023-02-23T04:16:53.275Z,33.50
2023-02-23T04:17:53.261Z,32.80
2023-02-23T04:18:53.262Z,31.30
2023-02-23T04:19:53.248Z,33.00
2023-02-23T04:20:53.359Z,31.40
2023-02-23T04:21:53.235Z,35.90
2023-02-23T04:22:53.233Z,35.40
2023-02-23T04:23:53.213Z,36.20
2023-02-23T04:24:53.202Z,36.90
2023-02-23T04:25:53.228Z,46.90
2023-02-23T04:26:53.195Z,47.00
2023-02-23T04:27:53.178Z,41.90
2023-02-23T04:28:53.177Z,39.60
2023-02-23T04:29:53.170Z,43.00
2023-02-23T04:30:53.243Z,40.90
2023-02-23T04:31:53.284Z,37.70
2023-02-23T04:32:53.176Z,38.60
2023-02-23T04:33:53.151Z,39.60
2023-02-23T04:34:53.141Z,36.90
2023-02-23T04:35:53.154Z,33.90
2023-02-23T04:36:53.133Z,33.50
2023-02-23T04:37:53.108Z,33.90
2023-02-23T04:38:53.100Z,36.80
2023-02-23T04:39:53.096Z,29.40
2023-02-23T04:40:53.122Z,34.20
2023-02-23T04:41:53.091Z,32.70
2023-02-23T04:42:53.080Z,36.40
2023-02-23T04:43:53.173Z,35.00
2023-02-23T04:44:53.051Z,33.30
2023-02-23T04:45:53.100Z,33.10
2023-02-23T04:46:53.068Z,32.60
2023-02-23T04:47:53.052Z,38.00
2023-02-23T04:48:53.032Z,36.00
2023-02-23T04:49:53.031Z,34.70
2023-02-23T04:50:53.025Z,31.00
2023-02-23T04:51:53.038Z,30.00
2023-02-23T04:52:53.024Z,33.00
2023-02-23T04:53:52.997Z,28.20
2023-02-23T04:54:52.995Z,30.50
2023-02-23T04:55:52.989Z,29.30
2023-02-23T04:56:52.994Z,26.90
2023-02-23T04:57:52.955Z,32.20
2023-02-23T04:58:53.949Z,32.50
2023-02-23T04:59:53.010Z,34.90
2023-02-23T05:00:52.945Z,32.20
2023-02-23T05:01:52.963Z,30.50
2023-02-23T05:02:52.936Z,30.70
2023-02-23T05:03:52.917Z,33.00
2023-02-23T05:04:52.992Z,32.40
2023-02-23T05:05:52.911Z,35.30
2023-02-23T05:06:52.922Z,36.50
2023-02-23T05:07:52.883Z,34.90
2023-02-23T05:08:52.872Z,31.70
2023-02-23T05:09:52.905Z,32.90
2023-02-23T05:10:52.870Z,32.50
2023-02-23T05:11:52.884Z,32.50
2023-02-23T05:12:52.848Z,32.30
2023-02-23T05:13:52.835Z,29.20
2023-02-23T05:14:52.835Z,26.60
2023-02-23T05:15:52.934Z,29.70
2023-02-23T05:16:52.840Z,29.50
2023-02-23T05:17:52.808Z,33.10
2023-02-23T05:18:52.816Z,33.50
2023-02-23T05:19:52.796Z,33.40
2023-02-23T05:20:52.799Z,31.90
2023-02-23T05:21:52.802Z,36.00
2023-02-23T05:22:52.768Z,34.20
2023-02-23T05:23:52.769Z,34.20
2023-02-23T05:24:52.755Z,35.70
2023-02-23T05:25:52.754Z,38.50
2023-02-23T05:26:52.840Z,44.40
2023-02-23T05:27:52.733Z,41.40
2023-02-23T05:28:52.730Z,39.00
2023-02-23T05:29:52.719Z,39.80
2023-02-23T05:30:52.787Z,39.20
2023-02-23T05:31:52.873Z,33.50
2023-02-23T05:32:52.699Z,32.70
2023-02-23T05:33:52.685Z,32.00
2023-02-23T05:34:52.675Z,30.80
2023-02-23T05:35:52.665Z,31.70
2023-02-23T05:36:52.690Z,33.30
2023-02-23T05:37:52.657Z,35.20
2023-02-23T05:38:52.646Z,31.20
2023-02-23T05:39:52.638Z,32.70
2023-02-23T05:40:52.630Z,33.30
2023-02-23T05:41:52.648Z,33.20
2023-02-23T05:42:52.611Z,34.90
2023-02-23T05:43:52.627Z,32.70
2023-02-23T05:44:52.618Z,33.60
2023-02-23T05:45:52.647Z,33.50
2023-02-23T05:46:52.610Z,33.60
2023-02-23T05:47:52.575Z,33.20
2023-02-23T05:48:52.566Z,34.10
2023-02-23T05:49:52.559Z,34.40
2023-02-23T05:50:52.546Z,33.50
2023-02-23T05:51:52.545Z,33.50
2023-02-23T05:52:52.563Z,32.10
2023-02-23T05:53:52.523Z,33.50
2023-02-23T05:54:52.527Z,33.00
2023-02-23T05:55:52.509Z,32.70
2023-02-23T05:56:52.509Z,34.00
2023-02-23T05:57:52.527Z,33.60
2023-02-23T05:58:53.493Z,30.80
2023-02-23T05:59:52.487Z,32.30
2023-02-23T06:00:52.485Z,33.30
2023-02-23T06:01:52.477Z,32.40
2023-02-23T06:02:52.522Z,33.80
2023-02-23T06:03:52.488Z,33.80
2023-02-23T06:04:52.465Z,32.30
2023-02-23T06:05:52.443Z,32.80
2023-02-23T06:06:52.436Z,34.70
2023-02-23T06:07:52.456Z,34.60
2023-02-23T06:08:52.405Z,33.10
2023-02-23T06:09:52.404Z,33.80
2023-02-23T06:10:52.410Z,35.70
2023-02-23T06:11:52.394Z,35.10
2023-02-23T06:12:52.401Z,37.80
2023-02-23T06:13:52.375Z,38.30
2023-02-23T06:14:52.377Z,35.10
2023-02-23T06:15:52.437Z,33.80
2023-02-23T06:16:52.410Z,35.00
2023-02-23T06:17:52.371Z,34.60
2023-02-23T06:18:52.340Z,35.00
2023-02-23T06:19:52.332Z,37.30
2023-02-23T06:20:52.317Z,36.50
2023-02-23T06:21:52.310Z,36.10
2023-02-23T06:22:52.325Z,34.00
2023-02-23T06:23:52.305Z,33.30
2023-02-23T06:24:52.291Z,29.50
2023-02-23T06:25:52.291Z,31.20
2023-02-23T06:26:52.271Z,28.90
2023-02-23T06:27:52.445Z,29.60
2023-02-23T06:28:52.260Z,31.10
2023-02-23T06:29:52.252Z,31.40
2023-02-23T06:30:52.299Z,32.00
2023-02-23T06:31:52.288Z,31.30
2023-02-23T06:32:53.273Z,28.60
2023-02-23T06:33:52.247Z,32.40
2023-02-23T06:34:52.216Z,33.10
2023-02-23T06:35:52.272Z,35.10
2023-02-23T06:36:52.227Z,34.40
2023-02-23T06:37:52.218Z,36.00
2023-02-23T06:38:52.256Z,32.90
2023-02-23T06:39:52.188Z,35.10
2023-02-23T06:40:52.194Z,35.20
2023-02-23T06:41:52.171Z,34.30
2023-02-23T06:42:52.178Z,34.90
2023-02-23T06:43:52.142Z,33.40
2023-02-23T06:44:52.134Z,34.20
2023-02-23T06:45:52.159Z,33.80
2023-02-23T06:46:52.153Z,31.60
2023-02-23T06:47:52.146Z,34.60
2023-02-23T06:48:52.112Z,31.60
2023-02-23T06:49:52.994Z,33.70
2023-02-23T06:50:52.124Z,31.80
2023-02-23T06:51:52.174Z,31.60
2023-02-23T06:52:52.122Z,32.20
2023-02-23T06:53:52.073Z,35.00
2023-02-23T06:54:52.056Z,31.00
2023-02-23T06:55:52.063Z,33.80
2023-02-23T06:56:52.046Z,32.30
2023-02-23T06:57:52.059Z,32.00
2023-02-23T06:58:52.032Z,32.90
2023-02-23T06:59:52.020Z,34.50
2023-02-23T07:00:52.003Z,34.00
2023-02-23T07:01:53.071Z,32.20
2023-02-23T07:02:52.021Z,33.50
2023-02-23T07:03:53.035Z,30.90
2023-02-23T07:04:51.984Z,30.30
2023-02-23T07:05:51.977Z,30.30
2023-02-23T07:06:51.971Z,33.80
2023-02-23T07:07:52.032Z,35.10
2023-02-23T07:08:51.961Z,33.70
2023-02-23T07:09:51.966Z,33.70
2023-02-23T07:10:51.952Z,33.40
2023-02-23T07:11:51.934Z,33.00
2023-02-23T07:12:51.955Z,32.20
2023-02-23T07:13:51.912Z,30.70
2023-02-23T07:14:51.902Z,30.60
2023-02-23T07:15:51.909Z,42.70
2023-02-23T07:16:51.893Z,47.80
2023-02-23T07:17:51.913Z,68.00
2023-02-23T07:18:51.882Z,55.50
2023-02-23T07:19:51.872Z,42.80
2023-02-23T07:20:51.863Z,34.80
2023-02-23T07:21:51.906Z,32.20
2023-02-23T07:22:51.877Z,32.80
2023-02-23T07:23:51.894Z,32.00
2023-02-23T07:24:51.827Z,30.40
2023-02-23T07:25:51.820Z,31.40
2023-02-23T07:26:51.820Z,35.10
2023-02-23T07:27:51.833Z,37.80
2023-02-23T07:28:54.082Z,36.90
2023-02-23T07:29:51.914Z,38.80
2023-02-23T07:30:51.827Z,36.00
2023-02-23T07:31:51.850Z,37.40
2023-02-23T07:32:51.826Z,38.90
2023-02-23T07:33:51.761Z,39.10
2023-02-23T07:34:53.752Z,38.40
2023-02-23T07:35:52.747Z,36.00
2023-02-23T07:36:51.752Z,36.50
2023-02-23T07:37:51.769Z,39.00
2023-02-23T07:38:51.727Z,40.90
2023-02-23T07:39:51.715Z,40.30
2023-02-23T07:40:51.713Z,40.50
2023-02-23T07:41:51.705Z,37.60
2023-02-23T07:42:51.747Z,40.50
2023-02-23T07:43:51.690Z,44.00
2023-02-23T07:44:51.682Z,45.90
2023-02-23T07:45:51.737Z,53.20
2023-02-23T07:46:51.667Z,57.20
2023-02-23T07:47:51.694Z,74.90
2023-02-23T07:48:51.653Z,62.10
2023-02-23T07:49:51.646Z,58.30
2023-02-23T07:50:51.642Z,53.10
2023-02-23T07:51:51.648Z,44.10
2023-02-23T07:52:51.652Z,43.10
2023-02-23T07:53:51.615Z,43.00
2023-02-23T07:54:51.607Z,37.70
2023-02-23T07:55:51.603Z,39.10
2023-02-23T07:56:51.593Z,36.00
2023-02-23T07:57:51.622Z,35.50
2023-02-23T07:58:51.582Z,34.90
2023-02-23T07:59:51.579Z,36.50
2023-02-23T08:00:51.590Z,38.00
2023-02-23T08:01:51.550Z,38.10
2023-02-23T08:02:51.572Z,36.30
2023-02-23T08:03:51.546Z,37.70
2023-02-23T08:04:51.532Z,38.60
2023-02-23T08:05:51.526Z,35.00
2023-02-23T08:06:51.521Z,36.90
2023-02-23T08:07:51.514Z,36.00
2023-02-23T08:08:51.530Z,36.00
2023-02-23T08:09:51.503Z,40.00
2023-02-23T08:10:51.486Z,35.10
2023-02-23T08:11:51.523Z,39.00
2023-02-23T08:12:51.531Z,37.80
2023-02-23T08:13:51.494Z,37.30
2023-02-23T08:14:51.486Z,35.90
2023-02-23T08:15:51.447Z,37.00
2023-02-23T08:16:51.805Z,36.10
2023-02-23T08:17:52.437Z,37.80
2023-02-23T08:18:51.547Z,35.50
2023-02-23T08:19:51.428Z,37.70
2023-02-23T08:20:51.428Z,36.30
2023-02-23T08:21:51.414Z,37.40
2023-02-23T08:22:52.415Z,38.10
2023-02-23T08:23:51.415Z,36.50
2023-02-23T08:24:51.380Z,37.50
2023-02-23T08:25:51.375Z,35.00
2023-02-23T08:26:51.364Z,39.20
2023-02-23T08:27:51.357Z,38.00
2023-02-23T08:28:51.379Z,38.70
2023-02-23T08:29:51.344Z,38.70
2023-02-23T08:30:51.425Z,38.00
2023-02-23T08:31:51.525Z,37.70
2023-02-23T08:32:51.328Z,38.40
2023-02-23T08:33:51.361Z,40.10
2023-02-23T08:34:51.313Z,40.60
2023-02-23T08:35:51.291Z,40.10
2023-02-23T08:36:51.302Z,42.90
2023-02-23T08:37:51.301Z,41.50
2023-02-23T08:38:51.299Z,43.60
2023-02-23T08:39:51.274Z,43.10
2023-02-23T08:40:51.274Z,47.60
2023-02-23T08:41:51.253Z,43.20
2023-02-23T08:42:51.247Z,44.60
2023-02-23T08:43:51.304Z,44.70
2023-02-23T08:44:51.226Z,44.60
2023-02-23T08:45:51.234Z,46.30
2023-02-23T08:46:51.216Z,51.70
2023-02-23T08:47:51.212Z,46.10
2023-02-23T08:48:51.226Z,46.30
2023-02-23T08:49:51.190Z,45.40
2023-02-23T08:50:51.181Z,44.00
2023-02-23T08:51:51.182Z,42.00
2023-02-23T08:52:51.180Z,44.50
2023-02-23T08:53:51.185Z,43.50
2023-02-23T08:54:51.151Z,46.00
2023-02-23T08:55:51.149Z,44.20
2023-02-23T08:56:51.143Z,42.90
2023-02-23T08:57:51.139Z,43.50
2023-02-23T08:58:51.160Z,42.60
2023-02-23T08:59:51.117Z,48.60
2023-02-23T09:00:51.107Z,41.30
2023-02-23T09:01:51.122Z,45.70
2023-02-23T09:02:51.080Z,50.60
2023-02-23T09:03:51.102Z,50.30
2023-02-23T09:04:51.072Z,55.40
2023-02-23T09:05:51.064Z,53.10
2023-02-23T09:06:51.066Z,58.20
2023-02-23T09:07:51.050Z,54.10
2023-02-23T09:08:51.092Z,59.90
2023-02-23T09:09:52.036Z,56.50
2023-02-23T09:10:51.025Z,57.00
2023-02-23T09:11:51.035Z,57.00
2023-02-23T09:12:51.012Z,53.60
2023-02-23T09:13:51.074Z,53.20
2023-02-23T09:14:51.013Z,49.50
2023-02-23T09:15:51.095Z,56.40
2023-02-23T09:16:51.049Z,52.00
2023-02-23T09:17:51.031Z,54.80
2023-02-23T09:18:51.001Z,52.20
2023-02-23T09:19:50.969Z,49.90
2023-02-23T09:20:50.958Z,50.80
2023-02-23T09:21:50.944Z,52.10
2023-02-23T09:22:50.944Z,51.40
2023-02-23T09:23:51.056Z,53.20
2023-02-23T09:24:50.920Z,53.40
2023-02-23T09:25:50.914Z,53.00
2023-02-23T09:26:50.912Z,54.40
2023-02-23T09:27:50.900Z,50.80
2023-02-23T09:28:50.918Z,52.10
2023-02-23T09:29:50.887Z,54.40
2023-02-23T09:30:50.919Z,57.20
2023-02-23T09:31:50.981Z,58.20
2023-02-23T09:32:50.870Z,56.20
2023-02-23T09:33:50.881Z,52.80
2023-02-23T09:34:50.851Z,52.20
2023-02-23T09:35:50.845Z,60.10
2023-02-23T09:36:50.836Z,57.80
2023-02-23T09:37:50.829Z,59.30
2023-02-23T09:38:50.838Z,57.90
2023-02-23T09:39:50.835Z,57.70
2023-02-23T09:40:50.794Z,56.90
2023-02-23T09:41:50.794Z,57.60
2023-02-23T09:42:50.787Z,58.60
2023-02-23T09:43:50.797Z,57.70
2023-02-23T09:44:50.765Z,59.00
2023-02-23T09:45:50.784Z,56.50
2023-02-23T09:46:50.757Z,59.30
2023-02-23T09:47:50.749Z,60.50
2023-02-23T09:48:50.771Z,61.60
2023-02-23T09:49:50.744Z,60.40
2023-02-23T09:50:50.753Z,65.00
2023-02-23T09:51:50.732Z,66.50
2023-02-23T09:52:50.703Z,63.60
2023-02-23T09:53:51.102Z,65.20
2023-02-23T09:54:50.694Z,66.30
2023-02-23T09:55:50.680Z,62.70
2023-02-23T09:56:50.672Z,64.40
2023-02-23T09:57:50.688Z,62.20
2023-02-23T09:58:50.686Z,62.60
2023-02-23T09:59:50.674Z,60.70
2023-02-23T10:00:50.645Z,60.70
2023-02-23T10:01:50.657Z,62.30
2023-02-23T10:02:50.630Z,60.80
2023-02-23T10:03:50.654Z,63.40
2023-02-23T10:04:50.652Z,63.10
2023-02-23T10:05:50.612Z,62.40
2023-02-23T10:06:50.606Z,63.00
2023-02-23T10:07:50.610Z,64.00
2023-02-23T10:08:50.622Z,64.00
2023-02-23T10:09:50.576Z,65.60
2023-02-23T10:10:50.572Z,77.40
2023-02-23T10:11:50.570Z,78.80
2023-02-23T10:12:50.555Z,79.50
2023-02-23T10:13:50.579Z,74.70
2023-02-23T10:14:50.569Z,70.80
2023-02-23T10:15:50.563Z,77.50
2023-02-23T10:16:50.529Z,76.40
2023-02-23T10:17:50.521Z,65.90
2023-02-23T10:18:51.532Z,68.10
2023-02-23T10:19:50.569Z,68.40
2023-02-23T10:20:50.495Z,72.40
2023-02-23T10:21:50.499Z,69.10
2023-02-23T10:22:50.478Z,65.90
2023-02-23T10:23:50.473Z,66.40
2023-02-23T10:24:50.502Z,66.60
2023-02-23T10:25:50.470Z,71.90
2023-02-23T10:26:50.454Z,68.10
2023-02-23T10:27:50.458Z,68.10
2023-02-23T10:28:50.436Z,68.60
2023-02-23T10:29:50.460Z,66.60
2023-02-23T10:30:50.583Z,63.70
2023-02-23T10:31:50.514Z,66.00
2023-02-23T10:32:50.405Z,69.60
2023-02-23T10:33:51.410Z,69.60
2023-02-23T10:34:50.421Z,69.00
2023-02-23T10:35:51.238Z,65.90
2023-02-23T10:36:50.393Z,68.40
2023-02-23T10:37:50.394Z,70.70
2023-02-23T10:38:50.380Z,71.00
2023-02-23T10:39:50.388Z,69.20
2023-02-23T10:40:50.347Z,74.20
2023-02-23T10:41:50.357Z,71.30
2023-02-23T10:42:50.341Z,71.40
2023-02-23T10:43:50.344Z,71.70
2023-02-23T10:44:50.359Z,66.80
2023-02-23T10:45:50.316Z,68.70
2023-02-23T10:46:50.365Z,68.80
2023-02-23T10:47:50.313Z,69.60
2023-02-23T10:48:50.346Z,67.70
2023-02-23T10:49:50.647Z,66.50
2023-02-23T10:50:50.304Z,70.70
2023-02-23T10:51:50.262Z,71.40
2023-02-23T10:52:50.258Z,70.50
2023-02-23T10:53:50.251Z,71.70
2023-02-23T10:54:50.267Z,71.00
2023-02-23T10:55:50.229Z,76.30
2023-02-23T10:56:50.221Z,70.90
2023-02-23T10:57:50.205Z,72.40
2023-02-23T10:58:50.241Z,70.50
2023-02-23T10:59:50.219Z,70.40
2023-02-23T11:00:50.191Z,68.40
2023-02-23T11:02:01.549Z,68.30
2023-02-23T11:02:52.170Z,72.50
2023-02-23T11:03:54.937Z,69.00
2023-02-23T11:04:52.268Z,70.40
2023-02-23T11:05:50.143Z,71.20
2023-02-23T11:06:50.138Z,67.00
2023-02-23T11:07:50.132Z,67.20
2023-02-23T11:08:50.122Z,69.50
2023-02-23T11:09:50.145Z,67.30
2023-02-23T11:10:50.113Z,68.70
2023-02-23T11:11:50.173Z,65.90
2023-02-23T11:12:50.093Z,69.00
2023-02-23T11:13:50.102Z,64.70
2023-02-23T11:14:50.109Z,66.70
2023-02-23T11:15:51.133Z,68.70
2023-02-23T11:16:52.048Z,67.80
2023-02-23T11:17:50.055Z,69.50
2023-02-23T11:18:50.047Z,67.80
2023-02-23T11:19:50.064Z,65.10
2023-02-23T11:20:50.046Z,65.10
2023-02-23T11:21:50.032Z,65.50
2023-02-23T11:22:50.017Z,67.90
2023-02-23T11:23:50.006Z,66.70
2023-02-23T11:24:50.030Z,67.40
2023-02-23T11:25:50.004Z,67.40
2023-02-23T11:26:50.029Z,69.90
2023-02-23T11:27:49.977Z,71.80
2023-02-23T11:28:49.968Z,70.90
2023-02-23T11:29:50.000Z,70.70
2023-02-23T11:30:49.980Z,67.90
2023-02-23T11:31:50.061Z,69.20
2023-02-23T11:32:50.041Z,66.90
2023-02-23T11:33:49.943Z,66.20
2023-02-23T11:34:49.955Z,67.10
2023-02-23T11:35:49.921Z,68.80
2023-02-23T11:36:49.912Z,66.40
2023-02-23T11:37:49.921Z,65.90
2023-02-23T11:38:49.896Z,64.90
2023-02-23T11:39:49.913Z,64.80
2023-02-23T11:40:49.879Z,66.70
2023-02-23T11:41:49.882Z,65.50
2023-02-23T11:42:49.881Z,64.90
2023-02-23T11:43:49.891Z,65.60
2023-02-23T11:44:49.849Z,67.70
2023-02-23T11:45:49.899Z,66.30
2023-02-23T11:46:49.839Z,66.70
2023-02-23T11:47:49.974Z,67.00
2023-02-23T11:48:49.818Z,67.10
2023-02-23T11:49:49.819Z,67.40
2023-02-23T11:50:49.843Z,63.60
2023-02-23T11:51:49.810Z,68.20
2023-02-23T11:52:49.826Z,64.50
2023-02-23T11:53:49.782Z,64.80
2023-02-23T11:54:49.782Z,68.50
2023-02-23T11:55:49.801Z,66.10
2023-02-23T11:56:49.762Z,68.40
2023-02-23T11:57:49.753Z,67.10
2023-02-23T11:58:49.778Z,66.10
2023-02-23T11:59:49.734Z,68.00
2023-02-23T12:00:49.763Z,67.10
2023-02-23T12:01:49.727Z,65.10
2023-02-23T12:02:49.752Z,64.50
2023-02-23T12:03:49.705Z,66.90
2023-02-23T12:04:49.794Z,65.80
2023-02-23T12:05:49.729Z,62.40
2023-02-23T12:06:49.687Z,64.20
2023-02-23T12:07:49.670Z,65.70
2023-02-23T12:08:49.686Z,65.30
2023-02-23T12:09:49.659Z,64.90
2023-02-23T12:10:49.754Z,68.90
2023-02-23T12:11:49.646Z,63.20
2023-02-23T12:12:49.662Z,67.30
2023-02-23T12:13:49.629Z,66.30
2023-02-23T12:14:49.635Z,64.30
2023-02-23T12:15:49.692Z,65.00
2023-02-23T12:16:49.671Z,61.80
2023-02-23T12:17:49.607Z,63.90
2023-02-23T12:18:49.606Z,59.00
2023-02-23T12:19:49.580Z,61.70
2023-02-23T12:20:50.606Z,61.90
2023-02-23T12:21:49.570Z,56.70
2023-02-23T12:22:49.569Z,58.50
2023-02-23T12:23:51.979Z,65.80
2023-02-23T12:24:49.546Z,60.80
2023-02-23T12:25:49.564Z,63.30
2023-02-23T12:26:49.538Z,59.30
2023-02-23T12:27:49.520Z,61.50
2023-02-23T12:28:49.512Z,62.30
2023-02-23T12:29:49.500Z,60.30
2023-02-23T12:30:49.572Z,55.10
2023-02-23T12:31:49.627Z,53.90
2023-02-23T12:32:49.489Z,52.50
2023-02-23T12:33:49.489Z,53.30
2023-02-23T12:34:49.467Z,52.80
2023-02-23T12:35:49.492Z,51.20
2023-02-23T12:36:49.450Z,51.30
2023-02-23T12:37:49.436Z,54.30
2023-02-23T12:38:49.448Z,51.10
2023-02-23T12:39:49.428Z,52.10
2023-02-23T12:40:51.065Z,49.70
2023-02-23T12:41:49.421Z,52.20
2023-02-23T12:42:49.411Z,50.00
2023-02-23T12:43:49.549Z,48.40
2023-02-23T12:44:49.401Z,48.70
2023-02-23T12:45:49.521Z,48.20
2023-02-23T12:46:49.364Z,42.90
2023-02-23T12:47:49.363Z,43.90
2023-02-23T12:48:49.360Z,44.70
2023-02-23T12:49:49.343Z,41.90
2023-02-23T12:50:49.374Z,41.80
2023-02-23T12:51:49.337Z,39.00
2023-02-23T12:52:49.325Z,38.90